• Join FlightAware (Why Join?)
  • Login
  • US Flag 
11:06AM EDT


 

Airport Tracker/Info


-or-


 

Live Flight TrackerFlight Track Log ✈ AAL1459 ✈ 09-Sep-2013 ✈ KORD - KRNO

Flight Track Log - Related Links

Times and Time Zones

All times are in EDT time to prevent confusion due to time zone crossing. See the AAL1459 flight status page for this flight to view local times or setup timezone preferences in your user account.

Time Position Orientation Groundspeed Altitude Reporting Facility
EDT Latitude Longitude Course Direction KTS MPH feet Rate Location/Type
06:59PM 41.9690 -87.9400 270° West 178 205 1,200  Level FlightAware
07:00PM 41.9690 -87.9630 270° West 186 214 1,900 1,800 Climbing FlightAware
07:00PM 41.9700 -87.9820 274° West 199 229 2,300 1,740 Climbing FlightAware
07:01PM 41.9700 -88.0250 270° West 218 251 3,300 1,500 Climbing FlightAware
07:01PM 41.9700 -88.0560 270° West 242 278 3,700 1,680 Climbing FlightAware
07:01PM 41.9690 -88.0870 268° West 250 288 4,500 2,280 Climbing FlightAware
07:02PM 41.9770 -88.1310 284° West 260 299 5,600 2,280 Climbing FlightAware
07:02PM 41.9850 -88.1620 289° West 263 303 6,400 2,460 Climbing FlightAware
07:02PM 41.9920 -88.1870 291° West 266 306 7,100 2,460 Climbing FlightAware
07:02PM 41.9930 -88.2000 276° West 267 307 7,400 2,460 Climbing FlightAware
07:03PM 41.9940 -88.2070 281° West 267 307 7,600 2,340 Climbing FlightAware
07:03PM 41.9930 -88.2440 268° West 269 310 8,500 2,280 Climbing FlightAware
07:03PM 41.9920 -88.2780 268° West 272 313 9,300 2,220 Climbing FlightAware
07:04PM 41.9920 -88.3120 270° West 279 321 10,000 1,920 Climbing FlightAware
07:04PM 41.9900 -88.3760 268° West 294 338 11,100 1,500 Climbing FlightAware
07:05PM 41.9880 -88.4380 268° West 327 376 11,700 1,020 Climbing FlightAware
07:05PM 41.9860 -88.5030 268° West 357 411 12,200 1,500 Climbing FlightAware
07:06PM 41.9920 -88.5480 280° West 361 415 13,000 2,280 Climbing FlightAware
07:06PM 42.0040 -88.6180 283° West 367 422 14,200 2,520 Climbing FlightAware
07:07PM 42.0210 -88.7100 284° West 374 430 16,000 2,520 Climbing FlightAware
07:07PM 42.0360 -88.7900 284° West 379 436 17,400 2,040 Climbing FlightAware
07:08PM 42.0510 -88.8730 284° West 384 442 18,500 1,380 Climbing FlightAware
07:08PM 42.0640 -88.9510 283° West 394 453 19,000 420 Climbing FlightAware
07:09PM 42.0780 -89.0350 283° West 394 453 19,000 660 Level FlightAware
07:10PM 42.0820 -89.1260 273° West 404 465 19,800 1,500 Climbing FlightAware
07:10PM 42.0850 -89.2090 273° West 412 474 20,800 1,860 Climbing FlightAware
07:11PM 42.0890 -89.3030 273° West 416 479 22,000 1,980 Climbing FlightAware
07:11PM 42.0930 -89.3860 274° West 420 483 23,100 1,860 Climbing FlightAware
07:12PM 42.0970 -89.4860 273° West 424 488 24,200 1,560 Climbing FlightAware
07:13PM 42.1010 -89.5770 273° West 432 497 25,000 1,320 Climbing FlightAware
07:13PM 42.1060 -89.6760 274° West 442 509 25,800 1,380 Climbing FlightAware
07:14PM 42.1110 -89.7730 274° West 445 512 26,700 1,500 Climbing FlightAware
07:14PM 42.1140 -89.8620 273° West 447 514 27,500 1,800 Climbing FlightAware
07:15PM 42.1180 -89.9550 273° West 439 505 28,700 1,860 Climbing FlightAware
07:16PM 42.1220 -90.0590 273° West 438 504 29,800 1,620 Climbing FlightAware
07:16PM 42.1240 -90.1470 272° West 439 505 30,600 1,320 Climbing FlightAware
07:17PM 42.1270 -90.2380 273° West 439 505 31,300 1,140 Climbing FlightAware
07:17PM 42.1310 -90.3440 273° West 440 506 32,000 540 Climbing FlightAware
07:18PM 42.1350 -90.4350 273° West 440 506 32,000 600 Level FlightAware
07:18PM 42.1380 -90.5270 273° West 438 504 32,700 1,260 Climbing FlightAware
07:19PM 42.1420 -90.6270 273° West 434 499 33,500 1,260 Climbing FlightAware
07:20PM 42.1460 -90.7120 274° West 433 498 34,200 1,200 Climbing FlightAware
07:20PM 42.1500 -90.8110 273° West 432 497 34,900 1,080 Climbing FlightAware
07:21PM 42.1540 -90.9050 273° West 432 497 35,500 1,020 Climbing FlightAware
07:21PM 42.1590 -91.0010 274° West 432 497 36,100 1,020 Climbing FlightAware
07:22PM 42.1640 -91.0980 274° West 431 496 36,700 1,140 Climbing FlightAware
07:23PM 42.1680 -91.1920 273° West 424 488 37,500 1,140 Climbing FlightAware
07:23PM 42.1720 -91.2770 274° West 419 482 38,000 420 Climbing FlightAware
07:24PM 42.1770 -91.3720 274° West 420 483 38,000  Level FlightAware
07:24PM 42.1800 -91.4700 272° West 421 484 38,000  Level FlightAware
07:25PM 42.1840 -91.5590 274° West 420 483 38,000  Level FlightAware
07:25PM 42.1880 -91.6440 274° West 421 484 38,000  Level FlightAware
07:26PM 42.1920 -91.7370 273° West 423 487 38,000  Level FlightAware
07:27PM 42.1960 -91.8310 273° West 424 488 38,000  Level FlightAware
07:27PM 42.2000 -91.9180 274° West 424 488 38,000  Level FlightAware
07:28PM 42.2030 -92.0130 272° West 424 488 38,000  Level FlightAware
07:28PM 42.2070 -92.1020 274° West 424 488 38,000  Level FlightAware
07:29PM 42.2110 -92.2030 273° West 423 487 38,000  Level FlightAware
07:30PM 42.2140 -92.2990 272° West 423 487 38,000  Level FlightAware
07:30PM 42.2170 -92.3840 273° West 422 486 38,000  Level FlightAware
07:31PM 42.2210 -92.4780 273° West 422 486 38,000  Level FlightAware
07:31PM 42.2240 -92.5740 272° West 422 486 38,000  Level FlightAware
07:32PM 42.2270 -92.6550 273° West 421 484 38,000  Level FlightAware
07:32PM 42.2300 -92.7490 272° West 418 481 38,000  Level FlightAware
07:33PM 42.2328 -92.8447 272° West 416 479 38,000  Level FlightAware ADS-B
07:33PM 42.2352 -92.9227 272° West 413 475 38,000  Level FlightAware ADS-B
07:34PM 42.2379 -93.0097 272° West 411 473 38,000  Level FlightAware ADS-B
07:35PM 42.2401 -93.0866 272° West 409 471 38,000  Level FlightAware ADS-B
07:35PM 42.2424 -93.1668 272° West 408 470 38,000  Level FlightAware ADS-B
07:36PM 42.2447 -93.2429 272° West 408 470 38,000  Level FlightAware ADS-B
07:36PM 42.2468 -93.3192 272° West 410 472 38,000  Level FlightAware ADS-B
07:37PM 42.2490 -93.3976 272° West 410 472 38,000  Level FlightAware ADS-B
07:37PM 42.2513 -93.4758 272° West 409 471 38,000  Level FlightAware ADS-B
07:38PM 42.2537 -93.5520 272° West 409 471 38,000  Level FlightAware ADS-B
07:38PM 42.2556 -93.6287 272° West 410 472 38,000  Level FlightAware ADS-B
07:39PM 42.2574 -93.7057 272° West 411 473 38,000  Level FlightAware ADS-B
07:39PM 42.2590 -93.7829 272° West 411 473 38,000  Level FlightAware ADS-B
07:40PM 42.2606 -93.8615 272° West 411 473 38,000  Level FlightAware ADS-B
07:40PM 42.2623 -93.9392 272° West 411 473 38,000  Level FlightAware ADS-B
07:41PM 42.2639 -94.0155 272° West 410 472 38,000  Level FlightAware ADS-B
07:41PM 42.2655 -94.0967 272° West 410 472 38,000  Level FlightAware ADS-B
07:42PM 42.2671 -94.1736 272° West 411 473 38,000  Level FlightAware ADS-B
07:42PM 42.2687 -94.2502 272° West 411 473 38,000  Level FlightAware ADS-B
07:43PM 42.2701 -94.3280 271° West 411 473 38,000  Level FlightAware ADS-B
07:43PM 42.2715 -94.4045 271° West 411 473 38,000  Level FlightAware ADS-B
07:44PM 42.2729 -94.4829 271° West 412 474 38,000  Level FlightAware ADS-B
07:44PM 42.2743 -94.5605 271° West 413 475 38,000  Level FlightAware ADS-B
07:45PM 42.2756 -94.6384 271° West 413 475 38,000  Level FlightAware ADS-B
07:45PM 42.2770 -94.7250 271° West 413 475 38,000  Level FlightAware ADS-B
07:46PM 42.2781 -94.8021 271° West 412 474 38,000  Level FlightAware ADS-B
07:46PM 42.2793 -94.8818 271° West 411 473 38,000  Level FlightAware ADS-B
07:47PM 42.2802 -94.9587 271° West 411 473 38,000  Level FlightAware ADS-B
07:47PM 42.2813 -95.0430 271° West 410 472 38,000  Level FlightAware ADS-B
07:48PM 42.2823 -95.1195 271° West 410 472 38,000  Level FlightAware ADS-B
07:48PM 42.2834 -95.2091 271° West 410 472 38,000  Level FlightAware ADS-B
07:49PM 42.2842 -95.2859 271° West 410 472 38,000  Level FlightAware ADS-B
07:49PM 42.2849 -95.3625 271° West 409 471 38,000  Level FlightAware ADS-B
07:50PM 42.2857 -95.4429 271° West 408 470 38,000  Level FlightAware ADS-B
07:50PM 42.2864 -95.5206 271° West 408 470 38,000  Level FlightAware ADS-B
07:51PM 42.2870 -95.5973 271° West 408 470 38,000  Level FlightAware ADS-B
07:51PM 42.2876 -95.6740 271° West 408 470 38,000  Level FlightAware ADS-B
07:52PM 42.2880 -95.7526 270° West 407 468 38,000  Level FlightAware ADS-B
07:52PM 42.2885 -95.8314 271° West 407 468 38,000  Level FlightAware ADS-B
07:53PM 42.2888 -95.9080 270° West 408 470 38,000  Level FlightAware ADS-B
07:54PM 42.2892 -95.9843 270° West 409 471 38,000  Level FlightAware ADS-B
07:54PM 42.2896 -96.0684 270° West 412 474 38,000  Level FlightAware ADS-B
07:55PM 42.2899 -96.1468 270° West 413 475 38,000  Level FlightAware ADS-B
07:55PM 42.2901 -96.2257 270° West 414 476 38,000  Level FlightAware ADS-B
07:56PM 42.2904 -96.3177 270° West 414 476 38,000  Level FlightAware ADS-B
07:56PM 42.2904 -96.4027 270° West 414 476 38,000  Level FlightAware ADS-B
07:57PM 42.2904 -96.4800 270° West 414 476 38,000  Level FlightAware ADS-B
07:57PM 42.2904 -96.5580 270° West 413 475 38,000  Level FlightAware ADS-B
07:58PM 42.2903 -96.6360 270° West 412 474 38,000  Level FlightAware ADS-B
07:58PM 42.2902 -96.7131 270° West 412 474 38,000  Level FlightAware ADS-B
07:59PM 42.2900 -96.7903 270° West 412 474 38,000  Level FlightAware ADS-B
07:59PM 42.2897 -96.8701 270° West 412 474 38,000  Level FlightAware ADS-B
08:00PM 42.2895 -96.9492 270° West 413 475 38,000  Level FlightAware ADS-B
08:00PM 42.2891 -97.0270 270° West 413 475 38,000  Level FlightAware ADS-B
08:01PM 42.2887 -97.1091 270° West 414 476 38,000  Level FlightAware ADS-B
08:01PM 42.2882 -97.1871 270° West 415 478 38,000  Level FlightAware ADS-B
08:02PM 42.2877 -97.2665 270° West 416 479 38,000  Level FlightAware ADS-B
08:02PM 42.2871 -97.3554 270° West 416 479 38,000  Level FlightAware ADS-B
08:03PM 42.2864 -97.4334 269° West 417 480 38,000  Level FlightAware ADS-B
08:03PM 42.2857 -97.5169 269° West 418 481 38,000  Level FlightAware ADS-B
08:04PM 42.2850 -97.5957 269° West 420 483 38,000  Level FlightAware ADS-B
08:04PM 42.2842 -97.6745 269° West 421 484 38,000  Level FlightAware ADS-B
08:05PM 42.2833 -97.7573 269° West 422 486 38,000  Level FlightAware ADS-B
08:06PM 42.2812 -97.9329 269° West 422 486 38,000  Level FlightAware ADS-B
08:07PM 42.2802 -98.0126 269° West 424 488 38,000  Level FlightAware ADS-B
08:07PM 42.2792 -98.0930 269° West 425 489 38,000  Level FlightAware ADS-B
08:08PM 42.2780 -98.1737 269° West 426 490 38,000  Level FlightAware ADS-B
08:08PM 42.2762 -98.2901 269° West 426 490 38,000  Level FlightAware ADS-B
08:09PM 42.2748 -98.3728 269° West 426 490 38,000  Level FlightAware ADS-B
08:09PM 42.2734 -98.4599 269° West 426 490 38,000  Level FlightAware ADS-B
08:10PM 42.2720 -98.5426 269° West 428 493 38,000  Level FlightAware ADS-B
08:10PM 42.2706 -98.6229 269° West 428 493 38,000  Level FlightAware ADS-B
08:12PM 42.2660 -98.8539 269° West 428 493 38,000  Level FlightAware ADS-B
08:12PM 42.2643 -98.9342 268° West 427 491 38,000  Level FlightAware ADS-B
08:13PM 42.2626 -99.0142 268° West 427 491 38,000  Level FlightAware ADS-B
08:13PM 42.2607 -99.0959 268° West 426 490 38,000  Level FlightAware ADS-B
08:14PM 42.2588 -99.1773 268° West 426 490 38,000  Level FlightAware ADS-B
08:16PM 42.2510 -99.4947 268° West 423 487 38,000  Level FlightAware ADS-B
08:16PM 42.2489 -99.5737 268° West 421 484 38,000  Level FlightAware ADS-B
08:17PM 42.2469 -99.6529 268° West 419 482 38,000  Level FlightAware ADS-B
08:17PM 42.2445 -99.7330 268° West 418 481 38,000  Level FlightAware ADS-B
08:18PM 42.2420 -99.8204 268° West 418 481 38,000  Level FlightAware ADS-B
08:19PM 42.2400 -99.8897 268° West 414 476 38,000  Level Denver Center
08:20PM 42.2350 -100.0650 268° West 417 480 38,000  Level Denver Center
08:21PM 42.2294 -100.2119 267° West 413 475 38,000  Level Denver Center
08:22PM 42.2239 -100.4097 268° West 415 478 38,000  Level Denver Center
08:23PM 42.2169 -100.5836 267° West 417 480 38,000  Level Denver Center
08:24PM 42.2117 -100.7325 267° West 417 480 38,000  Level Denver Center
08:25PM 42.2094 -100.8778 269° West 410 472 38,000  Level Denver Center
08:26PM 42.2353 -101.0497 282° West 420 483 38,000  Level Denver Center
08:27PM 42.2594 -101.1928 283° West 411 473 38,000  Level Denver Center
08:33PM 42.4050 -102.0920 283° West 399 459 38,000  Level FlightAware
08:34PM 42.4000 -102.1700 265° West 397 457 38,000  Level FlightAware
08:34PM 42.3940 -102.2520 264° West 397 457 38,000  Level FlightAware
08:35PM 42.3880 -102.3280 264° West 397 457 38,000  Level FlightAware
08:35PM 42.3820 -102.4390 266° West 397 457 38,000  Level FlightAware
08:36PM 42.3750 -102.5290 264° West 397 457 38,000  Level FlightAware
08:37PM 42.3700 -102.6110 265° West 398 458 38,000  Level FlightAware
08:37PM 42.3630 -102.7130 265° West 401 461 38,000  Level FlightAware
08:38PM 42.3540 -102.8370 264° West 403 464 38,000  Level FlightAware
08:39PM 42.3480 -102.9350 265° West 407 468 38,000  Level FlightAware
08:39PM 42.3420 -103.0160 264° West 409 471 38,000  Level FlightAware
08:40PM 42.3350 -103.1150 265° West 410 472 38,000  Level FlightAware
08:40PM 42.3290 -103.1940 264° West 410 472 38,000  Level FlightAware
08:41PM 42.3220 -103.2970 265° West 409 471 38,000  Level FlightAware
08:42PM 42.3150 -103.3880 264° West 409 471 38,000  Level FlightAware
08:42PM 42.3090 -103.4740 265° West 408 470 38,000  Level FlightAware
08:43PM 42.2990 -103.6020 264° West 406 467 38,000  Level FlightAware
08:44PM 42.2930 -103.6790 264° West 406 467 38,000  Level FlightAware
08:44PM 42.2870 -103.7570 264° West 406 467 38,000  Level FlightAware
08:45PM 42.2810 -103.8340 264° West 406 467 38,000  Level FlightAware
08:45PM 42.2750 -103.9110 264° West 406 467 38,000  Level FlightAware
08:46PM 42.2690 -103.9890 264° West 406 467 38,000  Level FlightAware
08:47PM 42.2630 -104.0660 264° West 406 467 38,000  Level FlightAware
08:47PM 42.2570 -104.1430 264° West 406 467 38,000  Level FlightAware
08:48PM 42.2410 -104.3230 263° West 409 471 38,000  Level FlightAware
08:49PM 42.2330 -104.4190 264° West 409 471 38,000  Level FlightAware
08:49PM 42.2260 -104.4970 263° West 409 471 38,000  Level FlightAware
08:50PM 42.2240 -104.6140 269° West 412 474 38,000  Level FlightAware
08:51PM 42.2170 -104.7320 265° West 412 474 38,000  Level FlightAware
08:51PM 42.2120 -104.8110 265° West 412 474 38,000  Level FlightAware
08:52PM 42.2080 -104.9130 267° West 410 472 38,000  Level FlightAware
08:52PM 42.2020 -105.0000 265° West 410 472 38,000  Level FlightAware
08:53PM 42.1970 -105.0860 266° West 408 470 38,000  Level FlightAware
08:53PM 42.1930 -105.1820 267° West 406 467 38,000  Level FlightAware
08:54PM 42.1870 -105.2770 265° West 404 465 38,000  Level FlightAware
08:55PM 42.1820 -105.3620 265° West 403 464 38,000  Level FlightAware
08:55PM 42.1770 -105.4530 266° West 403 464 38,000  Level FlightAware
08:56PM 42.1720 -105.5320 265° West 403 464 38,000  Level FlightAware
08:56PM 42.1670 -105.6080 265° West 403 464 38,000  Level FlightAware
08:57PM 42.1620 -105.6850 265° West 403 464 38,000  Level FlightAware
08:58PM 42.1550 -105.8070 266° West 402 463 38,000  Level FlightAware
08:58PM 42.1490 -105.9000 265° West 400 460 38,000  Level FlightAware
08:59PM 42.1430 -105.9920 265° West 399 459 38,000  Level FlightAware
09:00PM 42.1370 -106.0870 265° West 399 459 38,000  Level FlightAware
09:00PM 42.1310 -106.1800 265° West 398 458 38,000  Level FlightAware
09:01PM 42.1240 -106.2680 264° West 398 458 38,000  Level FlightAware
09:01PM 42.1180 -106.3700 265° West 394 453 38,000  Level FlightAware
09:02PM 42.1130 -106.4530 265° West 393 452 38,000  Level FlightAware
09:03PM 42.1070 -106.5300 264° West 392 451 38,000  Level FlightAware
09:03PM 42.1000 -106.6340 265° West 391 450 38,000  Level FlightAware
09:04PM 42.0940 -106.7080 264° West 391 450 38,000  Level FlightAware
09:05PM 42.0880 -106.7830 264° West 391 450 38,000  Level FlightAware
09:05PM 42.0820 -106.8570 264° West 391 450 38,000  Level FlightAware
09:06PM 42.0770 -106.9310 265° West 391 450 38,000  Level FlightAware
09:06PM 42.0710 -107.0050 264° West 391 450 38,000  Level FlightAware
09:07PM 42.0650 -107.0790 264° West 391 450 38,000  Level FlightAware
09:08PM 42.0590 -107.1550 264° West 391 450 38,000  Level FlightAware
09:08PM 42.0530 -107.2300 264° West 391 450 38,000  Level FlightAware
09:09PM 42.0470 -107.3040 264° West 391 450 38,000  Level FlightAware
09:09PM 42.0420 -107.3780 265° West 391 450 38,000  Level FlightAware
09:10PM 42.0360 -107.4480 263° West 391 450 38,000  Level FlightAware
09:11PM 42.0300 -107.5240 264° West 391 450 38,000  Level FlightAware
09:11PM 42.0240 -107.6000 264° West 391 450 38,000  Level FlightAware
09:12PM 42.0180 -107.6760 264° West 391 450 38,000  Level FlightAware
09:12PM 42.0120 -107.7530 264° West 391 450 38,000  Level FlightAware
09:14PM 41.9853 -108.1333 264° West 393 452 38,000  Level Denver Center
09:15PM 41.9742 -108.2739 264° West 395 455 38,000  Level Denver Center
09:16PM 41.9636 -108.4144 264° West 392 451 38,000  Level Salt Lake Center
09:17PM 41.9486 -108.5767 263° West 394 453 38,000  Level Salt Lake Center
09:18PM 41.9364 -108.7139 263° West 390 449 38,000  Level Salt Lake Center
09:19PM 41.9217 -108.8739 263° West 388 447 38,000  Level Salt Lake Center
09:20PM 41.9100 -109.0100 263° West 386 444 38,000  Level Salt Lake Center
09:21PM 41.8944 -109.1697 263° West 389 448 38,000  Level Salt Lake Center
09:22PM 41.8822 -109.3061 263° West 388 447 38,000  Level Salt Lake Center
09:23PM 41.8667 -109.4658 263° West 389 448 38,000  Level Salt Lake Center
09:24PM 41.8533 -109.6025 263° West 389 448 38,000  Level Salt Lake Center
09:25PM 41.8397 -109.7414 263° West 392 451 38,000  Level Salt Lake Center
09:31PM 41.7455 -110.6650 263° West 398 458 38,000  Level FlightAware ADS-B
09:32PM 41.7366 -110.7480 262° West 397 457 38,000  Level FlightAware ADS-B
09:32PM 41.7288 -110.8200 262° West 396 456 38,000  Level FlightAware ADS-B
09:33PM 41.7207 -110.8960 262° West 395 455 38,000  Level FlightAware ADS-B
09:33PM 41.7128 -110.9690 262° West 395 455 38,000  Level FlightAware ADS-B
09:34PM 41.7050 -111.0400 262° West 394 453 38,000  Level FlightAware ADS-B
09:34PM 41.6962 -111.1190 262° West 394 453 38,000  Level FlightAware ADS-B
09:35PM 41.6879 -111.1950 262° West 393 452 38,000  Level FlightAware ADS-B
09:35PM 41.6797 -111.2690 262° West 394 453 38,000  Level FlightAware ADS-B
09:36PM 41.6672 -111.3810 262° West 394 453 38,000  Level FlightAware ADS-B
09:36PM 41.6589 -111.4550 261° West 395 455 38,000  Level FlightAware ADS-B
09:37PM 41.6511 -111.5230 261° West 395 455 38,000  Level FlightAware ADS-B
09:37PM 41.6426 -111.5970 261° West 397 457 38,000  Level FlightAware ADS-B
09:38PM 41.6342 -111.6710 261° West 398 458 38,000  Level FlightAware ADS-B
09:38PM 41.6253 -111.7470 261° West 398 458 38,000  Level FlightAware ADS-B
09:39PM 41.6163 -111.8250 261° West 399 459 38,000  Level FlightAware ADS-B
09:39PM 41.6074 -111.9010 261° West 400 460 38,000  Level FlightAware ADS-B
09:40PM 41.5980 -111.9810 261° West 402 463 38,000  Level FlightAware ADS-B
09:41PM 41.5892 -112.0570 261° West 403 464 38,000  Level FlightAware ADS-B
09:41PM 41.5803 -112.1320 261° West 405 466 38,000  Level FlightAware ADS-B
09:42PM 41.5705 -112.2140 261° West 405 466 38,000  Level FlightAware ADS-B
09:42PM 41.5616 -112.2870 261° West 405 466 38,000  Level FlightAware ADS-B
09:43PM 41.5524 -112.3630 261° West 405 466 38,000  Level FlightAware ADS-B
09:43PM 41.5415 -112.4530 261° West 405 466 38,000  Level FlightAware ADS-B
09:44PM 41.5315 -112.5340 261° West 404 465 38,000  Level FlightAware ADS-B
09:44PM 41.5221 -112.6090 261° West 405 466 38,000  Level FlightAware ADS-B
09:45PM 41.5128 -112.6840 261° West 405 466 38,000  Level FlightAware ADS-B
09:45PM 41.5029 -112.7630 261° West 405 466 38,000  Level FlightAware ADS-B
09:46PM 41.4934 -112.8400 261° West 407 468 38,000  Level FlightAware ADS-B
09:46PM 41.4834 -112.9200 261° West 407 468 38,000  Level FlightAware ADS-B
09:47PM 41.4732 -113.0000 260° West 408 470 38,000  Level FlightAware ADS-B
09:48PM 41.4580 -113.1190 260° West 409 471 38,000  Level FlightAware ADS-B
09:48PM 41.4481 -113.1960 260° West 410 472 38,000  Level FlightAware ADS-B
09:49PM 41.4383 -113.2720 260° West 410 472 38,000  Level FlightAware ADS-B
09:49PM 41.4285 -113.3470 260° West 411 473 38,000  Level FlightAware ADS-B
09:50PM 41.4152 -113.4490 260° West 412 474 38,000  Level FlightAware ADS-B
09:51PM 41.4044 -113.5300 260° West 411 473 38,000  Level FlightAware ADS-B
09:51PM 41.3943 -113.6060 260° West 413 475 38,000  Level FlightAware ADS-B
09:52PM 41.3843 -113.6800 260° West 414 476 38,000  Level FlightAware ADS-B
09:52PM 41.3745 -113.7540 260° West 415 478 38,000  Level FlightAware ADS-B
09:53PM 41.3646 -113.8270 260° West 417 480 38,000  Level FlightAware ADS-B
09:53PM 41.3426 -113.9270 254° West 417 480 38,000  Level FlightAware ADS-B
09:54PM 41.3240 -114.0050 252° West 419 482 38,000  Level FlightAware ADS-B
09:54PM 41.3062 -114.0790 252° West 421 484 38,000  Level FlightAware ADS-B
09:55PM 41.2920 -114.1490 255° West 415 478 38,000  Level FlightAware
09:56PM 41.2551 -114.2930 251° West 422 486 38,000  Level FlightAware ADS-B
09:56PM 41.2367 -114.3690 252° West 420 483 38,000  Level FlightAware ADS-B
09:57PM 41.2165 -114.4520 252° West 420 483 38,000  Level FlightAware ADS-B
09:57PM 41.1994 -114.5230 252° West 420 483 38,000  Level FlightAware ADS-B
09:58PM 41.1811 -114.5980 252° West 419 482 38,000  Level FlightAware ADS-B
09:59PM 41.1573 -114.6950 252° West 418 481 38,000  Level FlightAware ADS-B
09:59PM 41.1472 -114.7360 252° West 418 481 38,000  Level FlightAware ADS-B
10:00PM 41.1162 -114.8620 252° West 416 479 38,000  Level FlightAware ADS-B
10:01PM 41.0950 -114.9500 252° West 419 482 38,000  Level FlightAware
10:01PM 41.0680 -115.0560 251° West 416 479 38,000  Level FlightAware ADS-B
10:01PM 41.0468 -115.1420 252° West 415 478 38,000  Level FlightAware ADS-B
10:02PM 41.0291 -115.2120 251° West 414 476 38,000  Level FlightAware ADS-B
10:02PM 41.0111 -115.2840 252° West 415 478 38,000  Level FlightAware ADS-B
10:03PM 40.9927 -115.3570 252° West 415 478 38,000  Level FlightAware ADS-B
10:04PM 41.0020 -115.3290 66° East 419 482 38,000  Level FlightAware
10:04PM 40.9840 -115.4030 252° West 419 482 38,000  Level FlightAware
10:05PM 40.9650 -115.4780 251° West 419 482 38,000  Level FlightAware
10:05PM 40.9470 -115.5530 252° West 419 482 38,000  Level FlightAware
10:06PM 40.9290 -115.6270 252° West 419 482 38,000  Level FlightAware
10:07PM 40.9100 -115.7020 251° West 419 482 38,000  Level FlightAware
10:07PM 40.8910 -115.7810 252° West 419 482 38,000  Level FlightAware
10:08PM 40.8112 -116.0660 250° West 430 495 38,000  Level FlightAware ADS-B
10:09PM 40.7758 -116.2030 251° West 431 496 38,000  Level FlightAware ADS-B
10:09PM 40.7561 -116.2780 251° West 434 499 38,000  Level FlightAware ADS-B
10:10PM 40.7370 -116.3510 251° West 436 502 38,000  Level FlightAware ADS-B
10:10PM 40.7108 -116.4511 251° West 434 499 38,000  Level Oakland Center
10:11PM 40.6731 -116.5944 251° West 435 501 38,000  Level Oakland Center
10:13PM 40.6286 -116.7608 251° West 435 501 38,000  Level Oakland Center
10:14PM 40.5906 -116.9042 251° West 439 505 38,000  Level Oakland Center
10:19PM 40.3620 -117.7400 251° West 440 506 38,000 -60 Level FlightAware
10:20PM 40.3360 -117.8320 250° West 442 509 37,700 -1,020 Descending FlightAware
10:20PM 40.3070 -117.9380 250° West 442 509 36,700 -1,620 Descending FlightAware
10:21PM 40.2830 -118.0210 249° West 446 513 35,700 -840 Descending FlightAware
10:22PM 40.2600 -118.1050 250° West 446 513 35,700 -2,280 Level FlightAware
10:22PM 40.2140 -118.2650 249° West 462 532 32,200 -3,360 Descending FlightAware
10:23PM 40.1920 -118.3450 250° West 469 540 30,900 -3,240 Descending FlightAware
10:24PM 40.1660 -118.4360 250° West 476 548 28,700 -3,420 Descending FlightAware
10:24PM 40.1350 -118.5400 249° West 464 534 26,900 -2,880 Descending FlightAware
10:25PM 40.0910 -118.6200 234° Southwest 456 525 25,200 -2,880 Descending FlightAware
10:25PM 40.0410 -118.6820 224° Southwest 450 518 23,700 -2,820 Descending FlightAware
10:26PM 39.9860 -118.7480 223° Southwest 438 504 22,000 -2,640 Descending FlightAware
10:26PM 39.9330 -118.8140 224° Southwest 427 491 20,500 -2,640 Descending FlightAware
10:27PM 39.8810 -118.8770 223° Southwest 418 481 18,900 -2,580 Descending FlightAware
10:28PM 39.8370 -118.9300 223° Southwest 410 472 17,600 -2,220 Descending FlightAware
10:28PM 39.7880 -118.9900 223° Southwest 394 453 16,400 -1,440 Descending FlightAware
10:29PM 39.7430 -119.0450 223° Southwest 362 417 15,900 -360 Descending FlightAware
10:29PM 39.7050 -119.0910 223° Southwest 339 390 16,000 60 Climbing FlightAware
10:30PM 39.6640 -119.1410 223° Southwest 336 387 16,000  Level FlightAware
10:31PM 39.6230 -119.1910 223° Southwest 334 384 16,000 -420 Level FlightAware
10:31PM 39.5800 -119.2330 217° Southwest 328 377 15,500 -1,200 Descending FlightAware
10:32PM 39.5360 -119.2710 214° Southwest 326 375 14,600 -1,620 Descending FlightAware
10:32PM 39.4960 -119.3060 214° Southwest 323 372 13,700 -1,500 Descending FlightAware
10:33PM 39.4520 -119.3450 214° Southwest 314 361 12,900 -1,320 Descending FlightAware
10:33PM 39.4080 -119.3840 214° Southwest 304 350 12,100 -1,320 Descending FlightAware
10:34PM 39.3870 -119.4080 221° Southwest 299 344 11,700 -900 Descending FlightAware
10:34PM 39.3560 -119.4550 230° Southwest 279 321 11,300 -960 Descending FlightAware
10:35PM 39.3260 -119.5000 229° Southwest 273 314 10,600 -1,080 Descending FlightAware
10:36PM 39.2990 -119.5410 230° Southwest 261 300 10,100 -900 Descending FlightAware
10:36PM 39.2830 -119.5640 228° Southwest 255 293 9,800 -1,080 Descending FlightAware
10:36PM 39.2680 -119.5870 230° Southwest 254 292 9,400 -1,200 Descending FlightAware
10:37PM 39.2560 -119.6060 231° Southwest 256 295 9,100 -540 Descending FlightAware
10:37PM 39.2410 -119.6280 229° Southwest 256 295 9,100  Level FlightAware
10:37PM 39.2280 -119.6480 230° Southwest 256 295 9,100  Level FlightAware
10:37PM 39.2210 -119.6620 237° Southwest 255 293 9,100  Level FlightAware
10:37PM 39.2190 -119.6750 259° West 251 289 9,100  Level FlightAware
10:38PM 39.2160 -119.7040 262° West 244 281 9,100  Level FlightAware
10:38PM 39.2140 -119.7270 264° West 235 270 9,100  Level FlightAware
10:38PM 39.2230 -119.7550 293° West 216 249 9,100  Level FlightAware
10:39PM 39.2290 -119.7620 318° Northwest 211 243 9,100  Level FlightAware
10:39PM 39.2360 -119.7660 336° Northwest 203 234 9,100  Level FlightAware
10:39PM 39.2430 -119.7680 348° North 202 232 9,100  Level FlightAware
10:39PM 39.2620 -119.7700 355° North 201 231 9,100 -480 Level FlightAware
10:40PM 39.2810 -119.7700 360° North 206 237 8,800 -1,260 Descending FlightAware
10:40PM 39.3040 -119.7700 360° North 204 235 8,200 -1,140 Descending FlightAware
10:40PM 39.3310 -119.7700 360° North 194 223 7,800 -1,020 Descending FlightAware
10:41PM 39.3520 -119.7700 360° North 188 216 7,300 -1,320 Descending FlightAware
10:41PM 39.3640 -119.7700 360° North 177 204 7,000 -1,200 Descending FlightAware
10:41PM 39.3810 -119.7700 360° North 159 183 6,600 -900 Descending FlightAware
10:42PM 39.3950 -119.7700 360° North 154 177 6,400 -840 Descending FlightAware
10:42PM 39.4080 -119.7700 360° North 154 177 6,100 -1,080 Descending FlightAware
10:42PM 39.4230 -119.7700 360° North 150 173 5,700 -960 Descending FlightAware
10:43PM 39.4390 -119.7690 North 145 167 5,400 -840 Descending FlightAware
10:43PM 39.4530 -119.7700 357° North 144 166 5,100 -900 Descending FlightAware
10:44PM 39.4720 -119.7690 North 146 168 4,700 -840 Descending FlightAware
10:44PM 39.4830 -119.7690 360° North 148 170 4,500 -840 Descending FlightAware
10:44PM 39.4960 -119.7690 360° North 130 150 -12,900 Descending FlightAware